Time;durP1;ratioP1;P1;durP2;ratioP2;P2;SDS_P1;SDS_P2;PMS_P1;PMS_P2;Temp;Humidity;BMP_temperature;BMP_pressure;BME280_temperature;BME280_humidity;BME280_pressure;Samples;Min_cycle;Max_cycle;Signal;HPM_P1;HPM_P2
2023/10/01 00:01:36;;;;;;;13.13;7.70;;;18.40;59.30;;;;;;5003156;28;20481;-45
2023/10/01 00:04:05;;;;;;;11.80;8.57;;;18.30;59.30;;;;;;5003712;28;20478;-46
2023/10/01 00:06:31;;;;;;;11.87;7.93;;;18.30;59.40;;;;;;5003935;28;20484;-46
2023/10/01 00:08:57;;;;;;;11.10;7.63;;;18.20;59.50;;;;;;5008587;28;20464;-47
2023/10/01 00:11:24;;;;;;;13.90;7.93;;;17.90;60.00;;;;;;5003448;28;20685;-45
2023/10/01 00:13:50;;;;;;;10.50;7.23;;;17.60;61.50;;;;;;4997301;28;20429;-45
2023/10/01 00:16:15;;;;;;;12.37;9.07;;;17.50;62.00;;;;;;5006986;28;20444;-45
2023/10/01 00:18:41;;;;;;;12.77;8.70;;;17.50;62.00;;;;;;4999038;28;20228;-47
2023/10/01 00:21:07;;;;;;;11.37;7.30;;;17.60;61.60;;;;;;4999454;28;20225;-45
2023/10/01 00:23:33;;;;;;;14.00;8.20;;;17.80;61.30;;;;;;5004975;28;20657;-45
2023/10/01 00:25:58;;;;;;;11.17;7.30;;;17.90;60.80;;;;;;5008738;28;20444;-45
2023/10/01 00:28:24;;;;;;;14.07;7.93;;;17.90;60.30;;;;;;5001774;28;20658;-47
2023/10/01 00:30:50;;;;;;;11.90;8.07;;;17.80;60.80;;;;;;5011263;28;20214;-49
2023/10/01 00:33:15;;;;;;;10.57;6.90;;;17.80;60.50;;;;;;5001115;28;20638;-45
2023/10/01 00:35:41;;;;;;;13.30;8.47;;;17.70;60.80;;;;;;5007777;28;20990;-45
2023/10/01 00:38:10;;;;;;;13.40;8.10;;;17.50;61.20;;;;;;4996033;28;20198;-45
2023/10/01 00:40:37;;;;;;;9.73;7.27;;;17.60;61.40;;;;;;5002674;28;20554;-45
2023/10/01 00:43:06;;;;;;;10.77;9.03;;;17.40;61.40;;;;;;5000807;28;20815;-45
2023/10/01 00:45:32;;;;;;;10.57;7.03;;;17.20;62.20;;;;;;5003465;28;20426;-45
2023/10/01 00:48:07;;;;;;;11.67;7.70;;;17.20;62.30;;;;;;5001498;28;21099;-45
2023/10/01 00:50:38;;;;;;;13.07;8.10;;;17.30;62.10;;;;;;4999767;28;20606;-45
2023/10/01 00:53:04;;;;;;;12.63;8.80;;;17.10;62.90;;;;;;5002533;28;20940;-45
2023/10/01 00:55:30;;;;;;;14.30;7.60;;;16.90;63.30;;;;;;5000686;28;20476;-48
2023/10/01 00:57:56;;;;;;;10.13;7.60;;;16.80;63.90;;;;;;5005079;28;20481;-46
2023/10/01 01:00:25;;;;;;;11.27;7.87;;;16.60;64.30;;;;;;5006253;28;20539;-47
2023/10/01 01:03:00;;;;;;;11.20;7.73;;;16.70;64.50;;;;;;5005018;28;20284;-46
2023/10/01 01:05:35;;;;;;;12.53;7.33;;;16.80;64.30;;;;;;4996699;28;20449;-48
2023/10/01 01:08:04;;;;;;;12.07;7.43;;;17.00;63.50;;;;;;5008045;28;20472;-45
2023/10/01 01:10:39;;;;;;;12.30;8.30;;;17.10;63.00;;;;;;4995813;28;20525;-48
2023/10/01 01:13:06;;;;;;;12.43;8.87;;;17.10;62.50;;;;;;4997194;28;20479;-45
2023/10/01 01:15:34;;;;;;;12.93;8.43;;;17.20;62.30;;;;;;5003593;28;20964;-47
2023/10/01 01:18:01;;;;;;;10.27;7.27;;;17.40;61.80;;;;;;5004637;28;20433;-45
2023/10/01 01:20:36;;;;;;;12.47;7.70;;;17.20;61.90;;;;;;5000986;28;20488;-45
2023/10/01 01:23:05;;;;;;;13.57;8.70;;;17.30;61.90;;;;;;4993023;28;21212;-46
2023/10/01 01:25:32;;;;;;;13.53;7.03;;;17.40;62.00;;;;;;5006155;28;20426;-45
2023/10/01 01:27:58;;;;;;;17.10;8.40;;;17.50;60.90;;;;;;5000648;28;20802;-45
2023/10/01 01:30:27;;;;;;;13.80;7.77;;;17.20;61.50;;;;;;5004539;28;20486;-45
2023/10/01 01:32:53;;;;;;;12.50;8.13;;;17.10;61.90;;;;;;4999366;28;20424;-49
2023/10/01 01:35:27;;;;;;;16.70;8.80;;;17.20;61.90;;;;;;5002571;28;20430;-46
2023/10/01 01:37:58;;;;;;;12.37;7.27;;;17.10;61.90;;;;;;5005573;28;20232;-46
2023/10/01 01:40:31;;;;;;;12.03;7.40;;;16.90;62.60;;;;;;5004644;28;20492;-45
2023/10/01 01:42:58;;;;;;;12.87;7.73;;;16.70;63.50;;;;;;4993981;28;20434;-46
2023/10/01 01:45:32;;;;;;;14.80;8.30;;;16.80;63.40;;;;;;5009668;28;20441;-46
2023/10/01 01:47:58;;;;;;;15.20;9.20;;;16.80;63.10;;;;;;4999945;28;20991;-45
2023/10/01 01:50:27;;;;;;;11.37;7.47;;;16.80;63.10;;;;;;5003862;28;20509;-46
2023/10/01 01:52:56;;;;;;;12.47;6.80;;;16.90;63.00;;;;;;5005531;28;20943;-44
2023/10/01 01:55:26;;;;;;;20.10;8.30;;;17.00;62.30;;;;;;4994586;28;20446;-45
2023/10/01 01:58:10;;;;;;;11.67;8.20;;;17.00;62.00;;;;;;4998718;28;20463;-46
2023/10/01 02:01:01;;;;;;;12.87;8.10;;;17.10;61.50;;;;;;4999342;28;20571;-47
2023/10/01 02:03:26;;;;;;;10.47;7.20;;;16.90;61.80;;;;;;5003634;28;20801;-49
2023/10/01 02:05:52;;;;;;;11.83;8.07;;;16.90;62.20;;;;;;4999101;28;20476;-45
2023/10/01 02:08:24;;;;;;;13.50;7.37;;;16.80;62.10;;;;;;4998063;28;20292;-48
2023/10/01 02:10:59;;;;;;;13.30;7.77;;;16.60;63.30;;;;;;5001221;28;20222;-48
2023/10/01 02:13:27;;;;;;;10.30;8.43;;;16.50;63.90;;;;;;5003232;28;20436;-45
2023/10/01 02:15:53;;;;;;;11.80;7.87;;;16.60;63.60;;;;;;4998132;28;20453;-49
2023/10/01 02:18:20;;;;;;;11.67;7.63;;;16.70;63.20;;;;;;5004539;28;20959;-45
2023/10/01 02:20:52;;;;;;;12.33;7.40;;;16.40;63.90;;;;;;5004904;28;20536;-45
2023/10/01 02:23:25;;;;;;;14.60;8.67;;;16.40;64.50;;;;;;4991954;28;20845;-47
2023/10/01 02:26:00;;;;;;;15.67;8.20;;;16.40;64.10;;;;;;4992214;28;20436;-44
2023/10/01 02:28:32;;;;;;;14.23;8.07;;;16.40;64.10;;;;;;4998788;28;20456;-45
2023/10/01 02:31:00;;;;;;;12.10;8.07;;;16.40;64.00;;;;;;4998328;28;20449;-47
2023/10/01 02:33:55;;;;;;;11.70;7.10;;;16.50;64.00;;;;;;5002637;28;20453;-45
2023/10/01 02:36:12;;;;;;;12.87;7.47;;;16.50;63.90;;;;;;5004434;28;20456;-45
2023/10/01 02:38:45;;;;;;;12.07;8.23;;;16.50;63.70;;;;;;4996774;28;20450;-46
2023/10/01 02:41:15;;;;;;;10.83;7.53;;;16.70;63.40;;;;;;5000886;28;20320;-47
2023/10/01 02:43:41;;;;;;;11.70;7.50;;;16.80;62.70;;;;;;4997616;28;20500;-46
2023/10/01 02:46:12;;;;;;;11.90;7.33;;;16.60;62.50;;;;;;4994371;28;20507;-45
2023/10/01 02:48:41;;;;;;;12.17;7.50;;;16.40;63.90;;;;;;5003871;28;20434;-45
2023/10/01 02:51:16;;;;;;;14.17;7.73;;;16.40;63.50;;;;;;4991473;28;20453;-45
2023/10/01 02:54:01;;;;;;;11.57;7.07;;;16.30;63.50;;;;;;4998424;28;20432;-47
2023/10/01 02:56:32;;;;;;;11.40;7.80;;;16.20;64.40;;;;;;5006604;28;20485;-44
2023/10/01 02:59:09;;;;;;;13.90;7.67;;;16.10;64.50;;;;;;5000809;28;20500;-48
2023/10/01 03:01:39;;;;;;;15.10;8.57;;;16.00;64.60;;;;;;4997384;28;20592;-44
2023/10/01 03:04:10;;;;;;;12.00;7.50;;;16.10;64.70;;;;;;5000506;28;20421;-47
2023/10/01 03:06:38;;;;;;;12.00;7.87;;;15.80;65.60;;;;;;4999290;28;20437;-44
2023/10/01 03:09:04;;;;;;;14.43;7.40;;;15.90;66.00;;;;;;4998498;28;20463;-45
2023/10/01 03:11:40;;;;;;;16.90;7.87;;;15.90;65.90;;;;;;4991976;28;20457;-45
2023/10/01 03:14:11;;;;;;;12.13;7.87;;;16.00;65.30;;;;;;4999572;28;20910;-46
2023/10/01 03:19:17;;;;;;;15.53;7.60;;;16.20;64.10;;;;;;5003757;28;20421;-45
2023/10/01 03:24:29;;;;;;;16.10;9.40;;;16.30;63.90;;;;;;4995243;28;20861;-45
2023/10/01 03:26:57;;;;;;;15.00;8.70;;;16.20;63.70;;;;;;4997275;28;20444;-47
2023/10/01 03:29:34;;;;;;;12.10;6.80;;;16.20;64.00;;;;;;4997241;28;20457;-44
2023/10/01 03:32:27;;;;;;;12.70;7.27;;;16.20;64.50;;;;;;5005071;28;20877;-47
2023/10/01 03:34:52;;;;;;;10.13;7.17;;;16.10;64.10;;;;;;4999775;28;20449;-45
2023/10/01 03:37:27;;;;;;;11.30;7.20;;;16.20;64.00;;;;;;4999426;28;20445;-45
2023/10/01 03:39:53;;;;;;;13.00;7.70;;;16.30;63.70;;;;;;5001126;28;21186;-46
2023/10/01 03:42:19;;;;;;;12.93;9.07;;;16.10;63.80;;;;;;4997860;28;20485;-47
2023/10/01 03:47:29;;;;;;;10.67;7.13;;;15.90;65.10;;;;;;4997539;28;20208;-45
2023/10/01 03:49:57;;;;;;;10.93;7.07;;;15.90;64.80;;;;;;4998474;28;20505;-44
2023/10/01 03:52:23;;;;;;;11.50;8.00;;;16.00;64.80;;;;;;5002506;28;20206;-46
2023/10/01 03:57:23;;;;;;;13.83;7.70;;;16.10;64.30;;;;;;5000787;28;20261;-45
2023/10/01 03:59:52;;;;;;;11.60;7.20;;;16.20;63.90;;;;;;5006801;28;20551;-45
2023/10/01 04:02:28;;;;;;;12.67;7.83;;;16.00;64.00;;;;;;4997663;28;20575;-45
2023/10/01 04:05:21;;;;;;;11.60;7.13;;;15.90;64.30;;;;;;4993291;28;20571;-45
2023/10/01 04:07:46;;;;;;;11.00;7.60;;;16.00;64.00;;;;;;4986062;28;21409;-49
2023/10/01 04:12:54;;;;;;;9.90;6.80;;;16.10;63.70;;;;;;5002242;28;20272;-48
2023/10/01 04:15:27;;;;;;;12.80;7.20;;;16.10;63.50;;;;;;4989585;28;20450;-47
2023/10/01 04:18:19;;;;;;;14.13;8.47;;;16.20;63.30;;;;;;5003680;28;20929;-45
2023/10/01 04:23:29;;;;;;;13.60;7.57;;;16.10;63.20;;;;;;4995011;28;20467;-45
2023/10/01 04:26:04;;;;;;;12.87;8.20;;;16.00;63.50;;;;;;4988143;28;20472;-49
2023/10/01 04:28:37;;;;;;;11.13;7.20;;;16.10;63.00;;;;;;5000025;28;20947;-47
2023/10/01 04:31:04;;;;;;;10.50;7.90;;;16.20;62.70;;;;;;5008067;28;20800;-45
2023/10/01 04:33:30;;;;;;;10.17;7.73;;;16.10;62.30;;;;;;5001367;28;20436;-46
2023/10/01 04:35:56;;;;;;;13.70;7.40;;;16.10;63.10;;;;;;4998834;28;20504;-45
2023/10/01 04:38:26;;;;;;;10.97;7.57;;;16.10;63.20;;;;;;5001400;28;20264;-44
2023/10/01 04:40:52;;;;;;;12.47;8.20;;;16.10;63.00;;;;;;5000087;28;20739;-45
2023/10/01 04:43:20;;;;;;;10.40;7.07;;;16.00;63.30;;;;;;5007289;28;20517;-45
2023/10/01 04:45:47;;;;;;;10.97;7.50;;;16.00;63.40;;;;;;4998765;28;20201;-48
2023/10/01 04:48:22;;;;;;;9.97;6.90;;;15.90;64.00;;;;;;4998556;28;20465;-46
2023/10/01 04:50:53;;;;;;;9.90;6.67;;;15.90;63.30;;;;;;5008169;28;20852;-46
2023/10/01 04:53:25;;;;;;;11.50;7.03;;;16.00;63.10;;;;;;5000824;28;20452;-45
2023/10/01 04:56:01;;;;;;;11.33;7.43;;;15.80;63.50;;;;;;4999593;28;20531;-45
2023/10/01 04:58:27;;;;;;;12.47;7.50;;;15.70;63.30;;;;;;5001709;28;21190;-45
2023/10/01 05:00:55;;;;;;;10.13;7.37;;;15.60;63.90;;;;;;5000866;28;20516;-48
2023/10/01 05:03:48;;;;;;;11.40;7.50;;;15.60;64.20;;;;;;5004269;28;20472;-45
2023/10/01 05:06:19;;;;;;;11.53;7.47;;;15.70;64.40;;;;;;5001034;28;20455;-50
2023/10/01 05:08:47;;;;;;;10.60;7.70;;;15.90;63.90;;;;;;5004971;28;20480;-45
2023/10/01 05:11:16;;;;;;;11.60;7.00;;;15.90;63.20;;;;;;5001521;28;20594;-45
2023/10/01 05:13:44;;;;;;;11.83;7.30;;;15.90;63.50;;;;;;5004007;28;20541;-48
2023/10/01 05:16:14;;;;;;;14.60;7.90;;;15.80;63.90;;;;;;5002726;28;20409;-45
2023/10/01 05:18:45;;;;;;;18.57;7.53;;;15.80;63.70;;;;;;4999664;28;20507;-44
2023/10/01 05:21:14;;;;;;;12.30;7.73;;;15.90;63.60;;;;;;5003592;28;20575;-45
2023/10/01 05:23:40;;;;;;;12.33;7.70;;;16.00;63.30;;;;;;5004583;28;20425;-49
2023/10/01 05:26:11;;;;;;;11.93;7.43;;;16.00;63.50;;;;;;5006050;28;20422;-45
2023/10/01 05:28:41;;;;;;;12.67;8.20;;;16.00;63.80;;;;;;4993302;28;20430;-48
2023/10/01 05:31:15;;;;;;;14.30;8.00;;;16.00;63.70;;;;;;5005992;28;20564;-45
2023/10/01 05:33:46;;;;;;;16.03;8.67;;;16.10;63.10;;;;;;5005890;28;20436;-45
2023/10/01 05:36:16;;;;;;;14.43;8.63;;;16.20;62.70;;;;;;4998065;28;20434;-45
2023/10/01 05:38:43;;;;;;;10.37;7.50;;;16.30;62.10;;;;;;5005740;28;20448;-44
2023/10/01 05:41:09;;;;;;;13.60;7.90;;;16.30;62.00;;;;;;4992895;28;20493;-46
2023/10/01 05:43:38;;;;;;;14.83;8.37;;;16.40;61.90;;;;;;5005698;28;20422;-47
2023/10/01 05:46:08;;;;;;;12.17;7.07;;;16.40;61.90;;;;;;4998619;28;20803;-45
2023/10/01 05:48:40;;;;;;;12.40;7.10;;;16.40;61.90;;;;;;5001221;28;20463;-45
2023/10/01 05:51:18;;;;;;;12.80;7.73;;;16.50;62.30;;;;;;4998078;28;20436;-44
2023/10/01 05:53:45;;;;;;;10.10;6.77;;;16.50;61.10;;;;;;5000122;28;20445;-45
2023/10/01 05:56:15;;;;;;;12.33;8.13;;;16.40;61.50;;;;;;5004717;28;20484;-44
2023/10/01 05:58:42;;;;;;;10.10;7.77;;;16.40;61.40;;;;;;5005347;28;20454;-45
2023/10/01 06:01:16;;;;;;;9.37;7.20;;;16.30;62.20;;;;;;4997250;28;20512;-46
2023/10/01 06:03:48;;;;;;;13.23;7.70;;;16.40;62.10;;;;;;5003203;28;20441;-44
2023/10/01 06:06:14;;;;;;;9.00;7.13;;;16.50;62.20;;;;;;4994044;28;20441;-45
2023/10/01 06:08:46;;;;;;;13.00;7.70;;;16.30;62.40;;;;;;5001824;28;20442;-44
2023/10/01 06:11:16;;;;;;;13.23;7.87;;;16.30;63.30;;;;;;4998858;28;20528;-47
2023/10/01 06:13:49;;;;;;;10.47;7.40;;;16.10;63.90;;;;;;4992484;28;20525;-45
2023/10/01 06:16:16;;;;;;;11.00;7.60;;;16.20;64.10;;;;;;4991715;28;20461;-47
2023/10/01 06:18:57;;;;;;;13.17;7.37;;;16.50;63.70;;;;;;4984304;28;20464;-48
2023/10/01 06:21:27;;;;;;;11.67;8.10;;;16.70;63.20;;;;;;4991409;28;20489;-46
2023/10/01 06:23:58;;;;;;;12.80;8.80;;;16.80;62.70;;;;;;5003452;28;20456;-44
2023/10/01 06:26:47;;;;;;;10.90;7.40;;;16.80;62.90;;;;;;5011571;28;20429;-47
2023/10/01 06:29:13;;;;;;;17.53;7.87;;;17.00;62.30;;;;;;4989783;28;20458;-49
2023/10/01 06:32:01;;;;;;;12.23;7.40;;;17.10;61.20;;;;;;4999185;28;20433;-45
2023/10/01 06:34:32;;;;;;;15.00;9.57;;;16.60;62.70;;;;;;4992247;28;20614;-45
2023/10/01 06:36:59;;;;;;;10.50;7.53;;;16.30;63.80;;;;;;4994846;28;20550;-45
2023/10/01 06:39:30;;;;;;;13.23;7.87;;;16.40;64.10;;;;;;4996217;28;20481;-45
2023/10/01 06:44:41;;;;;;;10.60;7.23;;;16.80;62.90;;;;;;4991896;28;20449;-46
2023/10/01 06:47:14;;;;;;;16.13;7.00;;;16.80;62.40;;;;;;4994473;28;20488;-46
2023/10/01 06:49:56;;;;;;;9.53;6.80;;;16.60;62.80;;;;;;5003092;28;20628;-44
2023/10/01 06:52:34;;;;;;;10.77;6.73;;;16.70;63.40;;;;;;4994119;28;20479;-49
2023/10/01 06:55:04;;;;;;;12.60;7.17;;;16.80;62.20;;;;;;4998451;28;20451;-44
2023/10/01 06:57:33;;;;;;;11.07;7.10;;;17.00;62.70;;;;;;4998736;28;20504;-45
2023/10/01 07:00:04;;;;;;;9.53;7.13;;;17.20;61.60;;;;;;4993171;28;20450;-45
2023/10/01 07:02:29;;;;;;;13.73;8.03;;;17.40;62.10;;;;;;4991557;28;21083;-46
2023/10/01 07:04:56;;;;;;;10.73;7.03;;;17.70;61.20;;;;;;4990829;28;20544;-45
2023/10/01 07:07:28;;;;;;;11.50;6.50;;;18.00;60.30;;;;;;4998080;28;20202;-47
2023/10/01 07:09:56;;;;;;;9.60;7.10;;;18.20;60.20;;;;;;4992563;28;20863;-46
2023/10/01 07:12:23;;;;;;;11.90;7.93;;;18.40;59.70;;;;;;4990723;28;20508;-45
2023/10/01 07:14:52;;;;;;;13.93;8.10;;;18.60;59.40;;;;;;5001398;28;20481;-44
2023/10/01 07:17:23;;;;;;;10.03;7.50;;;18.60;58.90;;;;;;4992487;28;20457;-45
2023/10/01 07:19:59;;;;;;;9.70;6.43;;;18.60;59.40;;;;;;4994550;28;20448;-46
2023/10/01 07:22:31;;;;;;;10.53;7.40;;;18.90;59.10;;;;;;5001679;28;20484;-45
2023/10/01 07:25:00;;;;;;;11.70;7.57;;;19.20;58.20;;;;;;4995849;28;20544;-47
2023/10/01 07:27:28;;;;;;;11.90;8.10;;;19.20;58.30;;;;;;4998996;28;20465;-46
2023/10/01 07:29:55;;;;;;;12.17;7.97;;;19.30;58.60;;;;;;4988833;28;20449;-46
2023/10/01 07:32:25;;;;;;;12.03;8.07;;;19.70;58.20;;;;;;4996708;28;20466;-45
2023/10/01 07:34:55;;;;;;;11.00;7.27;;;20.00;57.50;;;;;;4997502;28;20885;-47
2023/10/01 07:37:31;;;;;;;13.70;7.67;;;19.60;57.20;;;;;;4992609;28;20992;-45
2023/10/01 07:40:09;;;;;;;16.70;8.00;;;19.50;58.00;;;;;;5002021;28;20846;-46
2023/10/01 07:42:46;;;;;;;12.60;7.47;;;19.70;57.70;;;;;;4999702;28;20488;-47
2023/10/01 07:45:16;;;;;;;12.20;7.67;;;19.90;57.30;;;;;;4997961;28;20556;-46
2023/10/01 07:47:45;;;;;;;14.20;7.23;;;19.90;57.50;;;;;;4991695;28;20512;-47
2023/10/01 07:50:16;;;;;;;9.80;7.37;;;20.00;57.40;;;;;;4991833;28;20441;-47
2023/10/01 07:52:44;;;;;;;12.70;8.00;;;20.10;57.40;;;;;;4992856;28;20445;-46
2023/10/01 07:58:16;;;;;;;12.90;6.60;;;20.20;57.20;;;;;;4993527;28;20966;-46
2023/10/01 08:00:43;;;;;;;12.90;7.33;;;20.50;57.00;;;;;;5001513;28;20485;-45
2023/10/01 08:05:47;;;;;;;12.00;7.73;;;20.80;56.90;;;;;;5000946;28;20936;-46
2023/10/01 08:08:13;;;;;;;13.17;8.20;;;21.10;56.40;;;;;;4999880;28;20780;-47
2023/10/01 08:10:40;;;;;;;11.90;8.00;;;21.40;56.10;;;;;;4998521;28;20444;-48
2023/10/01 08:13:20;;;;;;;10.87;7.87;;;21.60;55.00;;;;;;5001069;28;20449;-45
2023/10/01 08:16:13;;;;;;;13.00;8.10;;;21.80;54.80;;;;;;5001066;28;20428;-48
2023/10/01 08:18:35;;;;;;;12.17;7.60;;;22.10;54.60;;;;;;4993277;28;20871;-49
2023/10/01 08:21:02;;;;;;;12.97;7.80;;;22.30;54.10;;;;;;4997954;28;20484;-46
2023/10/01 08:23:45;;;;;;;13.07;8.30;;;22.40;53.50;;;;;;4992618;28;20449;-45
2023/10/01 08:28:58;;;;;;;12.83;9.07;;;22.70;52.90;;;;;;4997768;28;20956;-48
2023/10/01 08:34:24;;;;;;;12.87;8.10;;;22.80;52.40;;;;;;4984612;28;20524;-50
2023/10/01 08:36:55;;;;;;;13.37;8.13;;;22.60;52.30;;;;;;4988814;28;21439;-52
2023/10/01 08:42:28;;;;;;;12.20;7.87;;;22.80;52.30;;;;;;4992085;28;20481;-56
2023/10/01 08:44:55;;;;;;;11.20;8.40;;;22.90;52.30;;;;;;4984175;28;20983;-45
2023/10/01 08:47:31;;;;;;;10.40;7.20;;;23.20;51.80;;;;;;4988210;28;20529;-49
2023/10/01 08:50:16;;;;;;;11.40;7.30;;;23.30;51.70;;;;;;4985730;28;20533;-52
2023/10/01 08:52:52;;;;;;;9.20;5.90;;;23.60;51.70;;;;;;4989383;28;20441;-46
2023/10/01 08:55:27;;;;;;;8.43;6.20;;;23.80;51.60;;;;;;4989153;28;20453;-46
2023/10/01 08:57:53;;;;;;;11.83;7.17;;;24.20;50.80;;;;;;4985842;28;20515;-49
2023/10/01 09:00:21;;;;;;;11.80;7.10;;;24.60;49.80;;;;;;4985558;28;20488;-46
2023/10/01 09:02:51;;;;;;;11.00;7.23;;;24.90;48.90;;;;;;4983913;28;20449;-50
2023/10/01 09:05:24;;;;;;;9.30;6.83;;;25.20;48.00;;;;;;4987298;28;20449;-49
2023/10/01 09:08:14;;;;;;;11.63;6.40;;;25.50;47.50;;;;;;5000585;28;20536;-50
2023/10/01 09:10:39;;;;;;;9.63;6.33;;;25.50;46.10;;;;;;4984613;28;20457;-50
2023/10/01 09:13:08;;;;;;;8.40;6.27;;;25.60;46.80;;;;;;4984233;28;20837;-50
2023/10/01 09:15:38;;;;;;;9.77;6.57;;;25.60;47.40;;;;;;4985944;28;20449;-52
2023/10/01 09:18:10;;;;;;;10.93;7.23;;;25.80;47.10;;;;;;4989974;28;20811;-47
2023/10/01 09:20:42;;;;;;;9.60;6.90;;;26.10;46.00;;;;;;4988069;28;20855;-52
2023/10/01 09:23:08;;;;;;;10.83;6.83;;;26.30;45.40;;;;;;4988614;28;20453;-50
2023/10/01 09:25:38;;;;;;;10.23;6.43;;;26.40;44.70;;;;;;4991350;28;20492;-52
2023/10/01 09:28:19;;;;;;;9.03;6.77;;;26.50;44.30;;;;;;4993047;28;20481;-48
2023/10/01 09:34:29;;;;;;;11.50;6.70;;;26.70;43.80;;;;;;4948338;28;20464;-48
2023/10/01 09:36:56;;;;;;;9.80;6.10;;;26.90;43.60;;;;;;4951250;28;20459;-50
2023/10/01 09:39:36;;;;;;;9.60;7.77;;;26.80;43.80;;;;;;4971144;28;21008;-52
2023/10/01 09:42:22;;;;;;;11.37;7.30;;;26.90;43.60;;;;;;4997335;28;21094;-49
2023/10/01 09:44:53;;;;;;;9.17;6.30;;;27.00;43.40;;;;;;4990145;28;20451;-53
2023/10/01 09:47:24;;;;;;;11.00;6.70;;;27.00;43.60;;;;;;4989330;28;20450;-51
2023/10/01 09:49:51;;;;;;;9.50;6.27;;;27.00;43.60;;;;;;4992291;28;20446;-50
2023/10/01 09:52:27;;;;;;;9.53;7.00;;;27.20;43.50;;;;;;4988591;28;20453;-52
2023/10/01 09:55:07;;;;;;;9.00;6.40;;;27.40;43.20;;;;;;4992132;28;21074;-49
2023/10/01 09:57:34;;;;;;;10.87;7.07;;;27.60;42.50;;;;;;4992855;28;20495;-48
2023/10/01 10:00:14;;;;;;;9.87;6.80;;;27.60;41.90;;;;;;4992340;28;20450;-51
2023/10/01 10:02:51;;;;;;;9.00;5.93;;;27.70;42.00;;;;;;4990348;28;21284;-52
2023/10/01 10:05:24;;;;;;;9.00;6.50;;;27.50;42.10;;;;;;4989572;28;20580;-52
2023/10/01 10:07:52;;;;;;;7.30;5.30;;;27.80;41.80;;;;;;4988373;28;20881;-53
2023/10/01 10:10:24;;;;;;;9.00;6.00;;;28.10;41.60;;;;;;4987918;28;20453;-48
2023/10/01 10:13:13;;;;;;;7.17;5.20;;;28.40;40.50;;;;;;4991285;28;20485;-51
2023/10/01 10:15:56;;;;;;;10.20;6.83;;;28.60;38.80;;;;;;4986116;28;20920;-48
2023/10/01 10:18:23;;;;;;;8.03;5.03;;;28.70;38.20;;;;;;4988318;28;20453;-48
2023/10/01 10:21:03;;;;;;;7.27;5.87;;;28.70;38.20;;;;;;4989928;28;20482;-48
2023/10/01 10:23:32;;;;;;;11.50;5.93;;;28.70;38.80;;;;;;4991431;28;20453;-48
2023/10/01 10:26:35;;;;;;;10.50;6.40;;;28.80;38.50;;;;;;4996723;28;20452;-48
2023/10/01 10:29:10;;;;;;;8.50;6.10;;;29.00;38.30;;;;;;4994358;28;20469;-50
2023/10/01 10:31:37;;;;;;;9.03;7.57;;;29.10;38.00;;;;;;4997137;28;20521;-48
2023/10/01 10:34:22;;;;;;;20.53;14.00;;;29.10;37.80;;;;;;4985761;28;20493;-48
2023/10/01 10:36:54;;;;;;;14.50;10.40;;;29.20;38.40;;;;;;4987628;28;20442;-48
2023/10/01 10:39:44;;;;;;;13.70;9.10;;;29.30;38.20;;;;;;5003974;28;20448;-52
2023/10/01 10:42:30;;;;;;;13.73;10.40;;;29.60;37.90;;;;;;4994917;28;20482;-49
2023/10/01 10:45:20;;;;;;;12.73;8.63;;;29.80;38.40;;;;;;4992596;28;20500;-52
2023/10/01 10:48:03;;;;;;;13.00;10.47;;;30.00;37.20;;;;;;4989410;28;20540;-50
2023/10/01 10:50:48;;;;;;;11.77;8.03;;;30.10;38.10;;;;;;4994050;28;20527;-48
2023/10/01 10:53:22;;;;;;;9.50;7.03;;;30.40;36.20;;;;;;4989770;28;20800;-48
2023/10/01 10:56:08;;;;;;;12.90;9.20;;;30.50;37.10;;;;;;4994712;28;20472;-52
2023/10/01 10:58:45;;;;;;;9.77;7.70;;;30.70;36.50;;;;;;5003158;28;20486;-52
2023/10/01 11:01:22;;;;;;;11.00;7.40;;;30.80;35.90;;;;;;4991503;28;20529;-50
2023/10/01 11:03:57;;;;;;;11.37;7.50;;;31.10;36.00;;;;;;4983718;28;20600;-49
2023/10/01 11:06:24;;;;;;;11.93;7.50;;;31.10;35.10;;;;;;4988827;28;20456;-53
2023/10/01 11:08:53;;;;;;;11.23;7.07;;;31.10;35.40;;;;;;4985505;28;20481;-49
2023/10/01 11:11:39;;;;;;;12.97;8.00;;;31.40;35.20;;;;;;4986540;28;20528;-49
2023/10/01 11:14:11;;;;;;;11.87;7.47;;;31.50;34.20;;;;;;4992174;28;20808;-53
2023/10/01 11:16:40;;;;;;;12.93;7.80;;;31.40;34.40;;;;;;4985237;28;20515;-49
2023/10/01 11:19:12;;;;;;;9.00;7.23;;;31.40;34.30;;;;;;4989422;28;20446;-51
2023/10/01 11:21:58;;;;;;;10.83;7.40;;;31.40;34.60;;;;;;4988231;28;20493;-49
2023/10/01 11:24:41;;;;;;;11.57;8.37;;;31.30;35.00;;;;;;4987852;28;20579;-48
2023/10/01 11:27:22;;;;;;;9.10;7.20;;;31.40;34.70;;;;;;4996194;28;20437;-49
2023/10/01 11:30:16;;;;;;;15.63;7.93;;;31.50;34.60;;;;;;4995340;28;20532;-53
2023/10/01 11:35:41;;;;;;;8.67;6.70;;;31.50;34.70;;;;;;4994551;28;20922;-53
2023/10/01 11:38:14;;;;;;;10.30;7.63;;;31.90;34.20;;;;;;5003916;28;20457;-48
2023/10/01 11:43:36;;;;;;;10.17;7.20;;;31.90;34.00;;;;;;4996039;28;20456;-50
2023/10/01 11:46:21;;;;;;;10.10;6.50;;;31.90;34.30;;;;;;5011982;28;20439;-50
2023/10/01 11:49:10;;;;;;;10.13;7.77;;;32.20;34.50;;;;;;4987341;28;20873;-49
2023/10/01 11:52:01;;;;;;;14.93;8.27;;;32.20;33.60;;;;;;4986411;28;20512;-52
2023/10/01 11:54:52;;;;;;;11.90;8.30;;;32.30;33.30;;;;;;4988458;28;20986;-51
2023/10/01 11:57:22;;;;;;;7.97;6.77;;;32.40;32.80;;;;;;4992867;28;20516;-53
2023/10/01 11:59:55;;;;;;;8.27;7.33;;;32.50;34.20;;;;;;4992719;28;20784;-54
2023/10/01 12:02:32;;;;;;;10.50;7.53;;;32.50;33.00;;;;;;5004761;28;20496;-50
2023/10/01 12:05:02;;;;;;;10.90;7.77;;;32.60;33.50;;;;;;4989852;28;20476;-48
2023/10/01 12:07:34;;;;;;;12.13;8.03;;;32.80;33.10;;;;;;4991024;28;20440;-50
2023/10/01 12:10:04;;;;;;;12.57;8.70;;;32.60;32.70;;;;;;4992539;28;20449;-50
2023/10/01 12:12:36;;;;;;;9.97;7.67;;;32.60;33.00;;;;;;4989087;28;20460;-52
2023/10/01 12:17:56;;;;;;;11.33;8.20;;;32.70;32.30;;;;;;4989932;28;20456;-50
2023/10/01 12:20:30;;;;;;;10.43;7.70;;;32.90;31.40;;;;;;4993764;28;20445;-52
2023/10/01 12:23:11;;;;;;;12.53;8.90;;;33.20;31.00;;;;;;4990986;28;20206;-50
2023/10/01 12:28:27;;;;;;;11.63;7.53;;;32.90;31.40;;;;;;4990658;28;21002;-47
2023/10/01 12:30:57;;;;;;;11.23;8.70;;;33.10;31.40;;;;;;5002835;28;20448;-50
2023/10/01 12:33:38;;;;;;;11.00;7.60;;;33.20;30.90;;;;;;4999002;28;20194;-53
2023/10/01 12:36:11;;;;;;;10.33;6.90;;;33.30;31.00;;;;;;4996523;28;20449;-51
2023/10/01 12:38:37;;;;;;;10.03;8.40;;;32.80;30.90;;;;;;4991789;28;20446;-49
2023/10/01 12:41:04;;;;;;;13.83;8.00;;;32.20;31.30;;;;;;4991521;28;21003;-49
2023/10/01 12:43:36;;;;;;;10.43;8.03;;;32.20;31.80;;;;;;4987887;28;20557;-52
2023/10/01 12:46:08;;;;;;;9.60;7.67;;;32.10;31.40;;;;;;4993682;28;20454;-51
2023/10/01 12:48:35;;;;;;;12.53;8.07;;;32.10;31.50;;;;;;4996240;28;20453;-53
2023/10/01 12:51:01;;;;;;;11.93;8.50;;;32.00;31.80;;;;;;4990639;28;20457;-49
2023/10/01 12:53:27;;;;;;;10.60;8.37;;;32.10;32.30;;;;;;4992024;28;20475;-51
2023/10/01 12:55:53;;;;;;;10.97;8.40;;;32.30;31.90;;;;;;4993209;28;21021;-51
2023/10/01 12:58:37;;;;;;;10.90;7.90;;;32.50;32.30;;;;;;4989126;28;20438;-48
2023/10/01 13:01:04;;;;;;;10.50;7.53;;;32.70;31.70;;;;;;4987784;28;20221;-48
2023/10/01 13:03:29;;;;;;;10.70;7.53;;;32.70;32.00;;;;;;5001835;28;20480;-49
2023/10/01 13:05:55;;;;;;;13.70;8.40;;;32.90;31.60;;;;;;5006682;28;20419;-49
2023/10/01 13:08:27;;;;;;;10.90;7.80;;;33.00;31.50;;;;;;5006296;28;20205;-50
2023/10/01 13:11:00;;;;;;;10.93;7.87;;;33.20;30.70;;;;;;4985967;28;20205;-53
2023/10/01 13:13:35;;;;;;;11.10;7.63;;;33.30;29.90;;;;;;5002450;28;20426;-48
2023/10/01 13:16:01;;;;;;;9.53;7.50;;;33.00;29.80;;;;;;4993989;28;20433;-53
2023/10/01 13:18:31;;;;;;;11.80;8.23;;;33.00;30.70;;;;;;5001842;28;20503;-52
2023/10/01 13:23:28;;;;;;;9.07;7.40;;;33.40;29.50;;;;;;5003315;28;20513;-50
2023/10/01 13:26:09;;;;;;;11.63;7.03;;;33.30;29.30;;;;;;5000411;28;20476;-50
2023/10/01 13:28:51;;;;;;;9.50;7.10;;;33.50;29.30;;;;;;4996582;28;20461;-49
2023/10/01 13:34:06;;;;;;;12.70;8.67;;;33.70;28.50;;;;;;5000090;28;20425;-52
2023/10/01 13:36:50;;;;;;;10.57;7.60;;;33.30;27.90;;;;;;5000225;28;20937;-52
2023/10/01 14:09:47;;;;;;;8.97;6.60;;;33.70;27.40;;;;;;4981775;28;20492;-51
2023/10/01 14:12:41;;;;;;;10.47;7.20;;;33.90;27.10;;;;;;4980707;28;20449;-53
2023/10/01 14:15:04;;;;;;;9.27;6.80;;;34.00;26.70;;;;;;4999639;28;20975;-51
2023/10/01 14:17:30;;;;;;;11.47;7.70;;;33.70;25.60;;;;;;4999490;28;20580;-51
2023/10/01 14:19:55;;;;;;;9.87;7.10;;;33.70;27.00;;;;;;5004860;28;20441;-50
2023/10/01 14:22:22;;;;;;;10.47;8.07;;;33.70;26.00;;;;;;4986698;28;20231;-50
2023/10/01 14:24:48;;;;;;;8.27;6.40;;;33.50;26.10;;;;;;4990540;28;20261;-53
2023/10/01 14:27:29;;;;;;;10.07;7.13;;;33.30;26.90;;;;;;4987872;28;20479;-49